Time;durP1;ratioP1;P1;durP2;ratioP2;P2;SDS_P1;SDS_P2;PMS_P1;PMS_P2;Temp;Humidity;BMP_temperature;BMP_pressure;BME280_temperature;BME280_humidity;BME280_pressure;Samples;Min_cycle;Max_cycle;Signal;HPM_P1;HPM_P2
2022/02/23 00:00:16;;;;;;;9.32;2.25;;;6.90;99.90;;;;;;5076723;28;20044;-62
2022/02/23 00:02:41;;;;;;;8.93;1.60;;;6.90;99.90;;;;;;5091346;28;20587;-62
2022/02/23 00:05:07;;;;;;;7.97;1.70;;;6.90;99.90;;;;;;5078109;28;20033;-61
2022/02/23 00:07:33;;;;;;;6.72;1.55;;;6.80;99.90;;;;;;5091290;28;20390;-63
2022/02/23 00:09:58;;;;;;;7.13;2.13;;;6.80;99.90;;;;;;5089939;28;20097;-62
2022/02/23 00:12:24;;;;;;;5.85;1.63;;;6.80;99.90;;;;;;5091802;28;20024;-62
2022/02/23 00:14:49;;;;;;;5.55;1.90;;;6.80;99.90;;;;;;5089902;28;20314;-62
2022/02/23 00:17:15;;;;;;;9.40;1.98;;;6.70;99.90;;;;;;5091664;28;20127;-62
2022/02/23 00:19:40;;;;;;;10.25;1.80;;;6.80;99.90;;;;;;5089616;28;20036;-62
2022/02/23 00:22:06;;;;;;;8.50;1.20;;;6.70;99.90;;;;;;5091705;28;20396;-62
2022/02/23 00:24:31;;;;;;;6.85;1.27;;;6.70;99.90;;;;;;5089394;28;20048;-62
2022/02/23 00:26:57;;;;;;;11.98;1.48;;;6.70;99.90;;;;;;5091899;28;20156;-62
2022/02/23 00:29:22;;;;;;;6.72;1.33;;;6.60;99.90;;;;;;5089446;28;20024;-62
2022/02/23 00:31:48;;;;;;;7.47;1.25;;;6.60;99.90;;;;;;5091763;28;20106;-62
2022/02/23 00:34:13;;;;;;;4.85;1.08;;;6.40;99.90;;;;;;5089273;28;20441;-62
2022/02/23 00:36:39;;;;;;;9.85;1.13;;;6.30;99.90;;;;;;5091661;28;20020;-62
2022/02/23 00:39:05;;;;;;;7.78;1.00;;;6.20;99.90;;;;;;5089163;28;20017;-61
2022/02/23 00:41:30;;;;;;;2.08;0.80;;;6.10;99.90;;;;;;5091346;28;20036;-62
2022/02/23 00:43:56;;;;;;;6.30;0.82;;;6.00;99.90;;;;;;5086132;28;20024;-62
2022/02/23 00:46:21;;;;;;;11.95;1.83;;;6.00;99.90;;;;;;5091268;28;20020;-62
2022/02/23 00:48:47;;;;;;;6.50;0.95;;;5.90;99.90;;;;;;5088604;28;20024;-62
2022/02/23 00:51:12;;;;;;;5.78;1.23;;;5.80;99.90;;;;;;5090649;28;20384;-62
2022/02/23 00:53:38;;;;;;;7.10;1.90;;;5.70;99.90;;;;;;5091045;28;20024;-62
2022/02/23 00:56:04;;;;;;;7.88;1.15;;;5.70;99.90;;;;;;5091265;28;20036;-61
2022/02/23 00:58:29;;;;;;;6.55;1.48;;;5.70;99.90;;;;;;5090881;28;20084;-62
2022/02/23 01:00:55;;;;;;;9.82;1.77;;;5.70;99.90;;;;;;5070248;28;20727;-62
2022/02/23 01:03:20;;;;;;;9.80;2.17;;;5.60;99.90;;;;;;5090037;28;20031;-62
2022/02/23 01:05:46;;;;;;;9.85;2.58;;;5.60;99.90;;;;;;5071400;28;20038;-62
2022/02/23 01:08:11;;;;;;;9.23;2.20;;;5.70;99.90;;;;;;5090245;28;20046;-62
2022/02/23 01:10:37;;;;;;;11.02;1.92;;;5.60;99.90;;;;;;5072517;28;20036;-62
2022/02/23 01:13:03;;;;;;;11.65;2.35;;;5.60;99.90;;;;;;5089989;28;20125;-60
2022/02/23 01:15:29;;;;;;;20.95;2.80;;;5.50;99.90;;;;;;5073573;28;20039;-62
2022/02/23 01:17:54;;;;;;;12.52;2.80;;;5.50;99.90;;;;;;5090113;28;20472;-62
2022/02/23 01:20:20;;;;;;;12.20;2.45;;;5.40;99.90;;;;;;5074426;28;20110;-62
2022/02/23 01:22:45;;;;;;;12.43;1.98;;;5.30;99.90;;;;;;5089609;28;20043;-62
2022/02/23 01:25:11;;;;;;;9.23;2.08;;;5.20;99.90;;;;;;5088496;28;20031;-62
2022/02/23 01:27:36;;;;;;;7.32;1.55;;;5.00;99.90;;;;;;5090546;28;20028;-62
2022/02/23 01:30:04;;;;;;;11.57;2.55;;;4.80;99.90;;;;;;5076855;28;20043;-62
2022/02/23 01:32:29;;;;;;;10.95;2.67;;;4.60;99.90;;;;;;5089920;28;20085;-63
2022/02/23 01:34:55;;;;;;;12.23;1.67;;;4.50;99.90;;;;;;5088391;28;20047;-62
2022/02/23 01:37:21;;;;;;;9.63;2.17;;;4.40;99.90;;;;;;5087998;28;20540;-62
2022/02/23 01:39:46;;;;;;;10.15;2.15;;;4.20;99.90;;;;;;5090221;28;20092;-62
2022/02/23 01:42:12;;;;;;;12.73;2.00;;;4.20;99.90;;;;;;5082991;28;20023;-61
2022/02/23 01:44:38;;;;;;;10.25;2.53;;;4.10;99.90;;;;;;5063664;28;20044;-62
2022/02/23 01:47:04;;;;;;;12.38;2.30;;;4.00;99.90;;;;;;5087401;28;20043;-61
2022/02/23 01:49:29;;;;;;;7.70;1.52;;;3.90;99.90;;;;;;5089936;28;20058;-62
2022/02/23 01:51:55;;;;;;;11.27;2.03;;;3.90;99.90;;;;;;5090121;28;20079;-62
2022/02/23 01:54:21;;;;;;;11.40;2.85;;;3.80;99.90;;;;;;5088139;28;20032;-62
2022/02/23 01:56:46;;;;;;;13.82;2.58;;;3.90;99.90;;;;;;5089820;28;20024;-62
2022/02/23 01:59:12;;;;;;;19.33;2.70;;;4.00;99.90;;;;;;5069362;28;20057;-62
2022/02/23 02:01:38;;;;;;;16.95;2.95;;;4.10;99.90;;;;;;5088952;28;20020;-62
2022/02/23 02:04:03;;;;;;;12.15;2.28;;;4.10;99.90;;;;;;5070450;28;20032;-61
2022/02/23 02:06:29;;;;;;;13.50;2.45;;;4.10;99.90;;;;;;5089303;28;20385;-62
2022/02/23 02:08:54;;;;;;;12.65;2.58;;;4.00;99.90;;;;;;5071555;28;20059;-62
2022/02/23 02:11:20;;;;;;;14.02;3.55;;;4.00;99.90;;;;;;5089213;28;20067;-61
2022/02/23 02:13:45;;;;;;;15.75;3.10;;;3.90;99.90;;;;;;5072774;28;20400;-62
2022/02/23 02:16:11;;;;;;;13.98;2.40;;;3.90;99.90;;;;;;5088945;28;20056;-62
2022/02/23 02:18:36;;;;;;;19.85;3.03;;;3.90;99.90;;;;;;5074132;28;20036;-62
2022/02/23 02:21:02;;;;;;;16.08;2.42;;;3.90;99.90;;;;;;5088634;28;20062;-62
2022/02/23 02:23:27;;;;;;;22.42;2.88;;;4.00;99.90;;;;;;5075106;28;20067;-62
2022/02/23 02:25:53;;;;;;;16.30;2.75;;;4.10;99.90;;;;;;5088589;28;20036;-62
2022/02/23 02:28:19;;;;;;;21.50;3.72;;;4.20;99.90;;;;;;5087383;28;20403;-61
2022/02/23 02:30:44;;;;;;;15.88;2.67;;;4.40;99.90;;;;;;5089119;28;20028;-62
2022/02/23 02:33:10;;;;;;;15.50;3.00;;;4.50;99.90;;;;;;5087296;28;20032;-62
2022/02/23 02:35:36;;;;;;;16.98;3.38;;;4.60;99.90;;;;;;5089148;28;20024;-62
2022/02/23 02:38:06;;;;;;;17.10;2.83;;;4.60;99.90;;;;;;5087111;28;20449;-62
2022/02/23 02:40:34;;;;;;;11.40;3.00;;;4.60;99.90;;;;;;5089039;28;20044;-62
2022/02/23 02:43:02;;;;;;;15.60;2.85;;;4.60;99.90;;;;;;5074957;28;20031;-62
2022/02/23 02:45:28;;;;;;;17.08;2.55;;;4.70;99.90;;;;;;5088649;28;20032;-62
2022/02/23 02:47:53;;;;;;;15.05;2.75;;;4.80;99.90;;;;;;5087340;28;20093;-62
2022/02/23 02:50:19;;;;;;;15.38;2.90;;;4.80;99.90;;;;;;5088957;28;20439;-61
2022/02/23 02:52:44;;;;;;;12.25;2.13;;;4.90;99.90;;;;;;5086950;28;20580;-62
2022/02/23 02:55:10;;;;;;;13.70;2.47;;;4.90;99.90;;;;;;5089070;28;20027;-61
2022/02/23 02:57:37;;;;;;;21.70;3.33;;;4.90;99.90;;;;;;5086804;28;20403;-62
2022/02/23 03:00:08;;;;;;;25.15;3.10;;;5.00;99.90;;;;;;5089237;28;20028;-60
2022/02/23 03:02:35;;;;;;;14.77;2.97;;;5.10;99.90;;;;;;5056378;28;20032;-62
2022/02/23 03:05:00;;;;;;;11.60;3.00;;;5.20;99.90;;;;;;5088941;28;20428;-62
2022/02/23 03:07:26;;;;;;;10.38;2.63;;;5.20;99.90;;;;;;5086766;28;20103;-61
2022/02/23 03:09:52;;;;;;;17.25;2.92;;;5.30;99.90;;;;;;5089098;28;20024;-61
2022/02/23 03:12:19;;;;;;;19.88;3.55;;;5.30;99.90;;;;;;5086935;28;20035;-62
2022/02/23 03:14:45;;;;;;;15.23;2.95;;;5.30;99.90;;;;;;5093274;28;20085;-62
2022/02/23 03:17:11;;;;;;;21.85;2.97;;;5.40;99.90;;;;;;5090881;28;20024;-62
2022/02/23 03:19:36;;;;;;;17.58;3.20;;;5.40;99.90;;;;;;5093239;28;20063;-62
2022/02/23 03:22:02;;;;;;;21.23;4.07;;;5.40;99.90;;;;;;5090555;28;20063;-61
2022/02/23 03:27:49;;;;;;;18.42;3.10;;;5.50;99.90;;;;;;5064780;28;20054;-62
2022/02/23 03:30:15;;;;;;;17.25;3.13;;;5.50;99.90;;;;;;5092732;28;20062;-61
2022/02/23 03:32:40;;;;;;;21.10;3.45;;;5.60;99.90;;;;;;5090861;28;20024;-62
2022/02/23 03:35:07;;;;;;;22.48;2.75;;;5.60;99.90;;;;;;5092902;28;20024;-62
2022/02/23 03:37:32;;;;;;;18.02;2.95;;;5.50;99.90;;;;;;5090405;28;20621;-61
2022/02/23 03:39:59;;;;;;;14.13;2.92;;;5.50;99.90;;;;;;5092744;28;20487;-62
2022/02/23 03:42:24;;;;;;;16.73;2.50;;;5.50;99.90;;;;;;5080051;28;20047;-61
2022/02/23 03:44:50;;;;;;;16.33;2.45;;;5.50;99.90;;;;;;5072418;28;20503;-62
2022/02/23 03:47:15;;;;;;;20.05;3.20;;;5.50;99.90;;;;;;5089661;28;20032;-61
2022/02/23 03:49:41;;;;;;;16.00;2.95;;;5.50;99.90;;;;;;5092701;28;20024;-61
2022/02/23 03:52:07;;;;;;;15.82;2.10;;;5.40;99.90;;;;;;5090619;28;20564;-61
2022/02/23 03:54:33;;;;;;;13.32;3.42;;;5.50;99.90;;;;;;5092215;28;20035;-62
2022/02/23 03:56:58;;;;;;;14.55;2.63;;;5.40;99.90;;;;;;5092410;28;20028;-62
2022/02/23 03:59:24;;;;;;;12.23;2.00;;;5.20;99.90;;;;;;5090081;28;20040;-62
2022/02/23 04:01:49;;;;;;;19.38;3.00;;;5.20;99.90;;;;;;5092203;28;20039;-62
2022/02/23 04:04:16;;;;;;;15.80;2.70;;;5.20;99.90;;;;;;5071309;28;20029;-62
2022/02/23 04:06:42;;;;;;;10.70;2.63;;;5.10;99.90;;;;;;5091773;28;20061;-62
2022/02/23 04:09:09;;;;;;;12.60;3.25;;;5.20;99.90;;;;;;5072327;28;20427;-62
2022/02/23 04:11:35;;;;;;;17.67;2.85;;;5.20;99.90;;;;;;5091387;28;20035;-62
2022/02/23 04:14:02;;;;;;;11.63;2.55;;;5.20;99.90;;;;;;5073219;28;20031;-62
2022/02/23 04:16:28;;;;;;;9.68;2.60;;;5.10;99.90;;;;;;5091260;28;20110;-62
2022/02/23 04:18:53;;;;;;;19.42;3.10;;;5.10;99.90;;;;;;5074151;28;20461;-62
2022/02/23 04:21:19;;;;;;;14.43;2.83;;;4.90;99.90;;;;;;5091302;28;20047;-62
2022/02/23 04:23:45;;;;;;;15.50;2.47;;;4.80;99.90;;;;;;5074701;28;20390;-62
2022/02/23 04:26:11;;;;;;;14.20;2.55;;;4.60;99.90;;;;;;5091126;28;20058;-61
2022/02/23 04:28:37;;;;;;;13.55;3.17;;;4.40;99.90;;;;;;5076168;28;20028;-62
2022/02/23 04:31:03;;;;;;;8.30;2.42;;;4.30;99.90;;;;;;5090917;28;20521;-62
2022/02/23 04:33:29;;;;;;;13.27;2.28;;;4.20;99.90;;;;;;5077204;28;20032;-61
2022/02/23 04:35:54;;;;;;;10.88;1.77;;;4.00;99.90;;;;;;5090887;28;20038;-62
2022/02/23 04:38:20;;;;;;;15.05;2.25;;;3.90;99.90;;;;;;5089464;28;20054;-62
2022/02/23 04:40:46;;;;;;;10.95;1.60;;;3.90;99.90;;;;;;5091321;28;20503;-62
2022/02/23 04:43:12;;;;;;;10.57;1.95;;;3.80;99.90;;;;;;5083086;28;20082;-61
2022/02/23 04:45:38;;;;;;;6.70;1.73;;;3.70;99.90;;;;;;5091172;28;20028;-62
2022/02/23 04:48:04;;;;;;;7.88;2.03;;;3.60;99.90;;;;;;5089367;28;20480;-62
2022/02/23 04:50:30;;;;;;;13.52;2.53;;;3.50;99.90;;;;;;5091131;28;20664;-61
2022/02/23 04:52:55;;;;;;;13.70;2.15;;;3.50;99.90;;;;;;5089126;28;20387;-62
2022/02/23 04:55:21;;;;;;;8.75;1.85;;;3.40;99.90;;;;;;5091338;28;20081;-62
2022/02/23 04:57:46;;;;;;;15.70;3.05;;;3.40;99.90;;;;;;5089000;28;20032;-62
2022/02/23 05:00:13;;;;;;;7.80;1.70;;;3.50;99.90;;;;;;5091190;28;20123;-62
2022/02/23 05:02:39;;;;;;;16.85;2.45;;;3.50;99.90;;;;;;5070654;28;20024;-62
2022/02/23 05:05:06;;;;;;;15.30;2.10;;;3.50;99.90;;;;;;5088996;28;20078;-62
2022/02/23 05:07:31;;;;;;;7.90;1.80;;;3.60;99.90;;;;;;5090807;28;20042;-62
2022/02/23 05:09:57;;;;;;;11.98;1.88;;;3.70;99.90;;;;;;5069218;28;20612;-62
2022/02/23 05:12:24;;;;;;;4.30;1.55;;;3.70;99.90;;;;;;5070987;28;20021;-61
2022/02/23 05:14:50;;;;;;;11.40;2.20;;;3.80;99.90;;;;;;5088805;28;20123;-61
2022/02/23 05:17:16;;;;;;;12.80;2.20;;;3.90;99.90;;;;;;5072763;28;20028;-61
2022/02/23 05:19:42;;;;;;;10.77;1.67;;;3.90;99.90;;;;;;5088644;28;20488;-61
2022/02/23 05:22:08;;;;;;;5.93;1.70;;;3.80;99.90;;;;;;5091245;28;20111;-61
2022/02/23 05:24:34;;;;;;;6.35;1.58;;;3.70;99.90;;;;;;5090681;28;20127;-62
2022/02/23 05:27:01;;;;;;;7.43;2.00;;;3.60;99.90;;;;;;5088914;28;20089;-62
2022/02/23 05:29:27;;;;;;;17.23;2.45;;;3.50;99.90;;;;;;5090573;28;20024;-62
2022/02/23 05:31:53;;;;;;;17.52;3.05;;;3.50;99.90;;;;;;5070138;28;20051;-62
2022/02/23 05:34:19;;;;;;;19.65;1.98;;;3.50;99.90;;;;;;5089979;28;20032;-62
2022/02/23 05:36:45;;;;;;;13.00;1.88;;;3.50;99.90;;;;;;5070402;28;20029;-62
2022/02/23 05:39:11;;;;;;;17.25;2.45;;;3.40;99.90;;;;;;5090180;28;20071;-61
2022/02/23 05:41:36;;;;;;;13.50;2.67;;;3.50;99.90;;;;;;5071577;28;20119;-62
2022/02/23 05:44:03;;;;;;;15.35;2.53;;;3.40;99.90;;;;;;5078796;28;20060;-62
2022/02/23 05:46:29;;;;;;;9.77;2.35;;;3.40;99.90;;;;;;5075593;28;20074;-63
2022/02/23 05:48:54;;;;;;;18.00;3.22;;;3.30;99.90;;;;;;5087125;28;20047;-62
2022/02/23 05:51:30;;;;;;;14.13;2.47;;;3.40;99.90;;;;;;5089407;28;20458;-61
2022/02/23 05:53:56;;;;;;;12.95;3.13;;;3.40;99.90;;;;;;5086911;28;20032;-62
2022/02/23 05:56:21;;;;;;;9.65;2.17;;;3.60;99.90;;;;;;5089445;28;20028;-62
2022/02/23 05:58:47;;;;;;;22.83;4.50;;;3.60;99.90;;;;;;5087282;28;20032;-62
2022/02/23 06:01:13;;;;;;;19.25;3.17;;;3.60;99.90;;;;;;5073162;28;20084;-62
2022/02/23 06:03:39;;;;;;;22.42;4.13;;;3.60;99.90;;;;;;5088600;28;20028;-63
2022/02/23 06:06:04;;;;;;;21.17;4.13;;;3.60;99.90;;;;;;5075265;28;20070;-62
2022/02/23 06:08:30;;;;;;;22.17;4.53;;;3.60;99.90;;;;;;5088554;28;20419;-63
2022/02/23 06:10:56;;;;;;;13.88;2.75;;;3.70;99.90;;;;;;5086843;28;20040;-62
2022/02/23 06:13:21;;;;;;;36.60;4.10;;;3.70;99.90;;;;;;5088976;28;20020;-62
2022/02/23 06:15:47;;;;;;;19.80;3.03;;;3.70;99.90;;;;;;5066578;28;20487;-62
2022/02/23 06:18:13;;;;;;;21.48;3.08;;;3.80;99.90;;;;;;5087847;28;20020;-62
2022/02/23 06:20:39;;;;;;;18.95;4.47;;;3.80;99.90;;;;;;5069419;28;20111;-63
2022/02/23 06:23:04;;;;;;;23.38;4.47;;;3.90;99.90;;;;;;5087698;28;20086;-62
2022/02/23 06:25:30;;;;;;;21.20;3.75;;;4.10;99.90;;;;;;5087024;28;20032;-62
2022/02/23 06:27:55;;;;;;;17.73;4.55;;;4.10;99.90;;;;;;5088328;28;20114;-63
2022/02/23 06:30:22;;;;;;;15.40;2.70;;;4.20;99.90;;;;;;5071188;28;20032;-63
2022/02/23 06:32:48;;;;;;;20.17;3.10;;;4.20;99.90;;;;;;5082009;28;20021;-63
2022/02/23 06:35:13;;;;;;;19.48;2.70;;;4.20;99.90;;;;;;5071804;28;20054;-62
2022/02/23 06:37:39;;;;;;;47.80;3.80;;;4.30;99.90;;;;;;5087783;28;20393;-61
2022/02/23 06:40:05;;;;;;;18.48;3.15;;;4.40;99.90;;;;;;5073539;28;20119;-62
2022/02/23 06:42:31;;;;;;;13.63;3.08;;;4.50;99.90;;;;;;5071489;28;20028;-63
2022/02/23 06:44:57;;;;;;;26.40;3.85;;;4.70;99.90;;;;;;5086272;28;20035;-63
2022/02/23 06:47:23;;;;;;;12.52;2.40;;;4.90;99.90;;;;;;5088281;28;20320;-62
2022/02/23 06:49:49;;;;;;;16.45;4.13;;;5.10;99.90;;;;;;5086207;28;20115;-62
2022/02/23 06:52:18;;;;;;;18.13;3.58;;;5.20;99.90;;;;;;5088070;28;20050;-61
2022/02/23 06:54:43;;;;;;;14.88;3.22;;;5.30;99.90;;;;;;5085824;28;20024;-61
2022/02/23 06:57:09;;;;;;;15.63;3.20;;;5.40;99.90;;;;;;5087921;28;20198;-59
2022/02/23 06:59:38;;;;;;;18.08;3.38;;;5.70;99.90;;;;;;5085803;28;20024;-63
2022/02/23 07:02:03;;;;;;;19.17;4.20;;;6.70;99.90;;;;;;5067246;28;20507;-62
2022/02/23 07:04:29;;;;;;;20.23;3.70;;;6.50;99.90;;;;;;5083963;28;20039;-62
2022/02/23 07:06:54;;;;;;;14.40;3.30;;;6.40;99.90;;;;;;5070876;28;20031;-62
2022/02/23 07:09:20;;;;;;;17.58;2.60;;;6.70;99.90;;;;;;5085049;28;20035;-62
2022/02/23 07:11:45;;;;;;;13.80;2.90;;;7.00;99.90;;;;;;5069686;28;20028;-61
2022/02/23 07:14:12;;;;;;;15.10;3.83;;;6.90;99.90;;;;;;5085737;28;20243;-59
2022/02/23 07:16:37;;;;;;;17.15;3.42;;;6.70;99.90;;;;;;5087867;28;20059;-61
2022/02/23 07:19:03;;;;;;;21.02;3.42;;;6.80;99.90;;;;;;5081254;28;20075;-61
2022/02/23 07:21:29;;;;;;;16.05;3.65;;;6.90;99.90;;;;;;5067514;28;20040;-62
2022/02/23 07:23:55;;;;;;;14.20;3.15;;;7.50;99.90;;;;;;5084911;28;20090;-62
2022/02/23 07:26:21;;;;;;;15.35;2.88;;;7.40;99.90;;;;;;5087757;28;20476;-60
2022/02/23 07:28:47;;;;;;;19.65;3.65;;;8.30;99.90;;;;;;5085507;28;20035;-61
2022/02/23 07:31:15;;;;;;;15.55;3.53;;;8.70;99.90;;;;;;5087548;28;20032;-60
2022/02/23 07:33:41;;;;;;;16.08;2.75;;;8.80;99.90;;;;;;5085677;28;20032;-60
2022/02/23 07:36:08;;;;;;;9.05;2.38;;;8.70;99.90;;;;;;5087621;28;20439;-62
2022/02/23 07:38:36;;;;;;;11.55;2.88;;;10.00;99.90;;;;;;5085863;28;20036;-61
2022/02/23 07:41:02;;;;;;;16.08;3.53;;;9.50;99.90;;;;;;5087440;28;20051;-62
2022/02/23 07:43:28;;;;;;;22.10;3.58;;;10.30;99.90;;;;;;5083764;28;20415;-62
2022/02/23 07:45:54;;;;;;;13.23;2.70;;;11.60;97.60;;;;;;5085949;28;20027;-62
2022/02/23 07:48:21;;;;;;;18.02;4.32;;;11.10;98.60;;;;;;5087324;28;20036;-63
2022/02/23 07:50:48;;;;;;;13.38;3.08;;;11.80;92.40;;;;;;5066869;28;20041;-63
2022/02/23 07:53:13;;;;;;;17.98;3.53;;;12.20;86.30;;;;;;5086779;28;20486;-61
2022/02/23 07:55:41;;;;;;;12.30;2.97;;;11.80;93.20;;;;;;5067826;28;20531;-62
2022/02/23 07:58:06;;;;;;;18.90;3.42;;;11.00;92.80;;;;;;5087107;28;20036;-63
2022/02/23 08:00:32;;;;;;;15.68;3.08;;;10.20;91.20;;;;;;5072155;28;20187;-63
2022/02/23 08:02:57;;;;;;;11.70;3.28;;;10.40;95.70;;;;;;5090795;28;20524;-63
2022/02/23 08:05:24;;;;;;;12.63;3.83;;;10.30;92.50;;;;;;5073794;28;20483;-62
2022/02/23 08:07:50;;;;;;;17.50;2.85;;;10.20;98.20;;;;;;5090206;28;20570;-63
2022/02/23 08:10:16;;;;;;;13.95;3.35;;;10.10;95.80;;;;;;5074755;28;20412;-62
2022/02/23 08:12:41;;;;;;;19.10;4.05;;;9.80;99.90;;;;;;5090360;28;20029;-62
2022/02/23 08:20:38;;;;;;;19.10;3.10;;;10.90;92.00;;;;;;5065564;28;20050;-62
2022/02/23 08:23:04;;;;;;;12.07;3.20;;;11.80;92.30;;;;;;5090027;28;20423;-62
2022/02/23 08:25:29;;;;;;;7.55;2.25;;;12.50;79.70;;;;;;5088750;28;20028;-62
2022/02/23 08:27:56;;;;;;;15.13;3.35;;;12.00;84.30;;;;;;5090804;28;20059;-62
2022/02/23 08:30:21;;;;;;;9.50;2.38;;;11.40;89.60;;;;;;5072705;28;20024;-62
2022/02/23 08:32:48;;;;;;;9.63;3.30;;;10.90;93.50;;;;;;5089657;28;20039;-62
2022/02/23 08:35:13;;;;;;;15.55;2.90;;;10.50;93.50;;;;;;5074543;28;20029;-62
2022/02/23 08:37:39;;;;;;;9.75;3.03;;;10.10;94.90;;;;;;5089811;28;20496;-63
2022/02/23 08:40:05;;;;;;;16.30;3.67;;;9.80;94.10;;;;;;5075983;28;20090;-63
2022/02/23 08:42:31;;;;;;;14.43;3.10;;;9.60;96.40;;;;;;5079358;28;20617;-61
2022/02/23 08:44:56;;;;;;;8.93;2.80;;;9.40;99.80;;;;;;5088298;28;20111;-62
2022/02/23 08:47:25;;;;;;;11.48;2.60;;;9.30;99.90;;;;;;5090268;28;20088;-62
2022/02/23 08:49:52;;;;;;;12.93;2.83;;;9.10;99.90;;;;;;5088014;28;20051;-61
2022/02/23 08:52:18;;;;;;;15.43;3.00;;;8.80;99.90;;;;;;5090052;28;20028;-62
2022/02/23 08:54:43;;;;;;;12.00;3.40;;;8.80;99.90;;;;;;5085616;28;20024;-61
2022/02/23 08:57:09;;;;;;;17.40;3.83;;;8.80;99.90;;;;;;5089566;28;20024;-61
2022/02/23 08:59:35;;;;;;;14.93;3.47;;;8.90;99.90;;;;;;5088005;28;20024;-62
2022/02/23 09:02:01;;;;;;;16.98;4.22;;;9.00;99.90;;;;;;5089844;28;20177;-62
2022/02/23 09:04:28;;;;;;;19.10;4.13;;;8.90;99.90;;;;;;5088163;28;20047;-62
2022/02/23 09:06:54;;;;;;;14.80;3.38;;;9.10;99.90;;;;;;5090009;28;20057;-63
2022/02/23 09:09:20;;;;;;;17.27;4.00;;;9.70;98.10;;;;;;5087445;28;20024;-63
2022/02/23 09:11:47;;;;;;;13.18;2.88;;;9.80;91.40;;;;;;5088816;28;20063;-63
2022/02/23 09:14:16;;;;;;;9.13;2.65;;;10.40;93.70;;;;;;5087579;28;20024;-62
2022/02/23 09:16:43;;;;;;;21.55;3.17;;;11.90;85.30;;;;;;5089691;28;20016;-60
2022/02/23 09:19:08;;;;;;;12.65;3.05;;;13.50;66.70;;;;;;5072005;28;20031;-61
2022/02/23 09:21:34;;;;;;;9.55;2.53;;;15.10;51.60;;;;;;5089229;28;20043;-60
2022/02/23 09:24:00;;;;;;;11.68;2.85;;;16.10;46.50;;;;;;5087488;28;20032;-60
2022/02/23 09:26:28;;;;;;;11.63;2.53;;;17.00;39.90;;;;;;5089406;28;20028;-62
2022/02/23 09:28:54;;;;;;;11.02;2.83;;;17.10;35.40;;;;;;5084863;28;20054;-61
2022/02/23 09:31:19;;;;;;;15.75;2.58;;;16.30;38.00;;;;;;5069804;28;20485;-60
2022/02/23 09:33:45;;;;;;;11.73;2.63;;;15.70;35.50;;;;;;5086564;28;20039;-60
2022/02/23 09:36:10;;;;;;;8.68;2.00;;;14.60;41.90;;;;;;5089331;28;20048;-60
2022/02/23 09:38:36;;;;;;;10.10;2.85;;;14.30;40.70;;;;;;5087118;28;20028;-59
2022/02/23 09:41:04;;;;;;;13.25;2.92;;;13.70;45.00;;;;;;5089078;28;20032;-60
2022/02/23 09:43:32;;;;;;;9.55;2.50;;;13.00;46.40;;;;;;5082208;28;20048;-60
2022/02/23 09:45:58;;;;;;;12.50;2.38;;;13.30;51.20;;;;;;5087624;28;20032;-60
2022/02/23 09:48:28;;;;;;;10.52;2.25;;;14.90;44.60;;;;;;5089019;28;20588;-61
2022/02/23 09:50:58;;;;;;;6.68;2.55;;;16.20;37.80;;;;;;5067382;28;20054;-60
2022/02/23 09:53:24;;;;;;;10.65;2.65;;;16.20;31.70;;;;;;5088686;28;20020;-60
2022/02/23 09:55:59;;;;;;;8.82;2.30;;;15.30;35.70;;;;;;5068027;28;20037;-61
2022/02/23 09:58:25;;;;;;;12.07;2.55;;;14.90;34.80;;;;;;5048429;28;20432;-60
2022/02/23 10:00:53;;;;;;;11.98;3.03;;;14.00;39.10;;;;;;5066581;28;20033;-61
2022/02/23 10:03:18;;;;;;;16.20;2.63;;;13.60;42.50;;;;;;5088238;28;20077;-60
2022/02/23 10:05:44;;;;;;;8.60;2.28;;;13.30;42.70;;;;;;5068394;28;20241;-61
2022/02/23 10:08:11;;;;;;;10.68;2.58;;;13.00;40.70;;;;;;5087982;28;20058;-60
2022/02/23 10:10:39;;;;;;;14.45;3.35;;;12.60;42.20;;;;;;5069105;28;20107;-61
2022/02/23 10:13:06;;;;;;;11.45;2.53;;;12.40;48.20;;;;;;5088139;28;20039;-61
2022/02/23 10:15:38;;;;;;;11.82;2.83;;;12.10;45.30;;;;;;5070143;28;20036;-61
2022/02/23 10:18:10;;;;;;;10.38;2.05;;;11.80;46.10;;;;;;5089063;28;20421;-60
2022/02/23 10:20:39;;;;;;;9.35;2.42;;;11.50;49.70;;;;;;5062400;28;20044;-60
2022/02/23 10:23:18;;;;;;;10.77;2.28;;;11.60;51.90;;;;;;5087090;28;20044;-60
2022/02/23 10:26:04;;;;;;;12.32;2.92;;;11.80;53.90;;;;;;5086801;28;20369;-60
2022/02/23 10:28:32;;;;;;;9.30;2.28;;;11.70;50.70;;;;;;5048137;28;20029;-61
2022/02/23 10:31:09;;;;;;;8.48;2.03;;;11.60;51.70;;;;;;5048147;28;20036;-60
2022/02/23 10:33:38;;;;;;;9.38;2.10;;;11.60;47.70;;;;;;5046502;28;20517;-60
2022/02/23 10:36:16;;;;;;;5.50;1.80;;;11.60;52.60;;;;;;5088034;28;20060;-61
2022/02/23 10:38:54;;;;;;;8.80;2.40;;;11.60;51.40;;;;;;5048316;28;20021;-61
2022/02/23 10:41:31;;;;;;;10.30;2.55;;;11.60;51.10;;;;;;5088360;28;20051;-62
2022/02/23 10:43:58;;;;;;;14.48;2.60;;;11.50;43.90;;;;;;5046163;28;20103;-64
2022/02/23 10:46:23;;;;;;;12.23;2.92;;;11.40;49.90;;;;;;5088151;28;20435;-63
2022/02/23 10:48:59;;;;;;;8.65;2.03;;;11.60;50.10;;;;;;5086007;28;20028;-63
2022/02/23 10:51:27;;;;;;;8.85;2.25;;;11.60;49.10;;;;;;5088227;28;20024;-65
2022/02/23 10:54:01;;;;;;;7.65;2.75;;;11.50;46.90;;;;;;5077775;28;20039;-67
2022/02/23 10:56:29;;;;;;;9.75;2.55;;;11.50;44.30;;;;;;5087964;28;20034;-66
2022/02/23 10:59:09;;;;;;;8.75;2.58;;;11.30;45.30;;;;;;5085739;28;20110;-66
2022/02/23 11:01:36;;;;;;;11.43;2.45;;;11.00;45.40;;;;;;5087987;28;20036;-66
2022/02/23 11:04:04;;;;;;;6.50;2.33;;;11.00;50.00;;;;;;5085985;28;20020;-66
2022/02/23 11:06:31;;;;;;;5.85;1.92;;;11.00;50.90;;;;;;5087880;28;20043;-67
2022/02/23 11:08:57;;;;;;;6.57;2.20;;;11.00;49.00;;;;;;5085787;28;20032;-66
2022/02/23 11:11:24;;;;;;;8.30;2.33;;;11.00;51.00;;;;;;5087793;28;20022;-66
2022/02/23 11:13:51;;;;;;;16.00;2.95;;;11.00;47.90;;;;;;5085790;28;20040;-66
2022/02/23 11:16:19;;;;;;;12.50;2.80;;;10.90;47.60;;;;;;5082568;28;20592;-66
2022/02/23 11:18:47;;;;;;;11.05;2.42;;;10.70;47.50;;;;;;5070551;28;20036;-65
2022/02/23 11:21:15;;;;;;;12.63;2.38;;;10.70;49.90;;;;;;5087856;28;20083;-65
2022/02/23 11:23:43;;;;;;;9.55;2.15;;;10.90;46.20;;;;;;5084916;28;20500;-66
2022/02/23 11:29:39;;;;;;;9.07;1.95;;;11.40;45.80;;;;;;5079870;28;20043;-66
2022/02/23 11:32:07;;;;;;;11.45;2.53;;;11.50;45.90;;;;;;5067538;28;20028;-67
2022/02/23 11:34:37;;;;;;;10.82;2.38;;;11.50;42.30;;;;;;5071708;28;20059;-66
2022/02/23 11:37:09;;;;;;;8.20;2.17;;;11.60;43.50;;;;;;5065191;28;20061;-67
2022/02/23 11:39:38;;;;;;;8.35;2.25;;;11.70;43.60;;;;;;5066005;28;20032;-67
2022/02/23 11:42:07;;;;;;;11.93;2.45;;;11.80;42.90;;;;;;5091120;28;20032;-66
2022/02/23 11:44:37;;;;;;;12.75;2.58;;;11.80;40.30;;;;;;5070412;28;20381;-67
2022/02/23 11:47:14;;;;;;;7.80;1.77;;;11.80;42.50;;;;;;5091567;28;20422;-66
2022/02/23 11:49:53;;;;;;;8.68;1.85;;;11.70;43.20;;;;;;5066821;28;20029;-67
2022/02/23 11:52:20;;;;;;;6.28;2.13;;;11.70;40.70;;;;;;5091056;28;20032;-66
2022/02/23 11:55:08;;;;;;;9.30;2.53;;;11.60;43.30;;;;;;5071605;28;20508;-66
2022/02/23 11:57:54;;;;;;;8.13;2.20;;;11.50;42.00;;;;;;5063397;28;20028;-62
2022/02/23 12:00:43;;;;;;;7.35;2.10;;;11.50;43.10;;;;;;5091275;28;20533;-64
2022/02/23 12:03:22;;;;;;;11.80;2.60;;;11.50;39.10;;;;;;5090000;28;20077;-64
2022/02/23 12:06:27;;;;;;;13.13;3.13;;;11.60;40.30;;;;;;5051544;28;20283;-65
2022/02/23 12:09:45;;;;;;;11.80;2.05;;;11.70;39.40;;;;;;5090990;28;20036;-63
2022/02/23 12:12:33;;;;;;;6.88;2.40;;;11.80;40.30;;;;;;5079545;28;20040;-62
2022/02/23 12:15:18;;;;;;;9.63;1.75;;;11.80;40.70;;;;;;5050968;28;20040;-62
2022/02/23 12:18:47;;;;;;;8.82;2.17;;;11.70;40.60;;;;;;5069841;28;20120;-62
2022/02/23 12:21:55;;;;;;;;;;;11.50;39.60;;;;;;5070887;28;20106;-63
2022/02/23 12:25:24;;;;;;;7.50;1.73;;;11.30;37.50;;;;;;5081271;28;20300;-63
2022/02/23 12:28:52;;;;;;;6.47;2.05;;;11.20;41.50;;;;;;5079836;28;20032;-64
2022/02/23 12:32:20;;;;;;;12.30;2.53;;;11.30;41.80;;;;;;5069561;28;20028;-63
2022/02/23 12:35:47;;;;;;;8.18;2.08;;;11.10;41.90;;;;;;5079188;28;20604;-64
2022/02/23 12:39:11;;;;;;;6.80;1.50;;;10.70;40.70;;;;;;5078913;28;20467;-64
2022/02/23 12:42:36;;;;;;;7.93;1.60;;;10.30;43.20;;;;;;5067859;28;20404;-62
2022/02/23 12:46:11;;;;;;;7.35;1.75;;;10.00;46.80;;;;;;5090193;28;20062;-63
2022/02/23 12:49:36;;;;;;;8.93;2.25;;;9.90;48.10;;;;;;5086664;28;20044;-63
2022/02/23 12:53:01;;;;;;;11.13;1.88;;;9.90;49.70;;;;;;5062850;28;20040;-63
2022/02/23 12:56:33;;;;;;;8.77;1.92;;;9.70;50.60;;;;;;5068636;28;20052;-63
2022/02/23 12:59:58;;;;;;;8.60;2.05;;;9.50;52.60;;;;;;5050121;28;20024;-62
2022/02/23 13:03:27;;;;;;;9.27;2.13;;;9.50;52.70;;;;;;5049959;28;20048;-63
2022/02/23 13:06:53;;;;;;;13.30;1.90;;;9.50;52.40;;;;;;5068866;28;20037;-63
2022/02/23 13:10:17;;;;;;;7.50;1.98;;;9.50;50.90;;;;;;5082283;28;20058;-64
2022/02/23 13:13:55;;;;;;;7.13;1.85;;;9.50;52.00;;;;;;5080742;28;20055;-63
2022/02/23 13:17:20;;;;;;;5.68;1.52;;;9.50;50.90;;;;;;5065136;28;20032;-63